createdAt,value
2022-08-27T00:00:15.378Z,13.48
2022-08-27T00:02:43.699Z,14.18
2022-08-27T00:05:12.854Z,13.93
2022-08-27T00:07:39.934Z,13.48
2022-08-27T00:10:09.114Z,14.20
2022-08-27T00:12:36.241Z,14.20
2022-08-27T00:15:04.608Z,14.32
2022-08-27T00:17:31.136Z,14.40
2022-08-27T00:19:57.994Z,14.85
2022-08-27T00:22:24.482Z,13.52
2022-08-27T00:24:50.977Z,13.77
2022-08-27T00:27:17.954Z,14.63
2022-08-27T00:29:44.800Z,13.05
2022-08-27T00:32:11.320Z,13.07
2022-08-27T00:34:37.826Z,12.85
2022-08-27T00:37:06.612Z,13.38
2022-08-27T00:39:34.019Z,12.77
2022-08-27T00:42:03.645Z,13.75
2022-08-27T00:44:31.925Z,13.70
2022-08-27T00:47:02.722Z,14.55
2022-08-27T00:49:43.590Z,11.93
2022-08-27T00:52:22.225Z,12.93
2022-08-27T00:54:52.203Z,12.93
2022-08-27T00:57:19.192Z,13.98
2022-08-27T00:59:46.409Z,14.27
2022-08-27T01:02:19.133Z,13.65
2022-08-27T01:04:55.489Z,13.57
2022-08-27T01:07:31.004Z,13.93
2022-08-27T01:10:00.276Z,15.38
2022-08-27T01:12:28.385Z,14.85
2022-08-27T01:14:56.679Z,13.48
2022-08-27T01:17:24.788Z,15.57
2022-08-27T01:19:58.617Z,15.18
2022-08-27T01:22:43.307Z,14.43
2022-08-27T01:25:14.323Z,15.48
2022-08-27T01:27:43.412Z,14.88
2022-08-27T01:30:12.935Z,14.82
2022-08-27T01:32:39.983Z,15.00
2022-08-27T01:35:09.330Z,14.65
2022-08-27T01:37:36.821Z,15.73
2022-08-27T01:40:04.775Z,15.38
2022-08-27T01:42:41.031Z,15.88
2022-08-27T01:45:14.264Z,14.70
2022-08-27T01:47:41.008Z,15.80
2022-08-27T01:50:13.746Z,15.90
2022-08-27T01:52:40.704Z,16.23
2022-08-27T01:55:09.608Z,15.30
2022-08-27T01:57:36.209Z,16.15
2022-08-27T02:00:14.175Z,16.15
2022-08-27T02:02:41.152Z,14.65
2022-08-27T02:05:08.779Z,16.67
2022-08-27T02:07:36.573Z,18.48
2022-08-27T02:10:04.763Z,17.42
2022-08-27T02:12:31.252Z,16.00
2022-08-27T02:14:57.754Z,16.58
2022-08-27T02:17:24.298Z,17.50
2022-08-27T02:19:50.791Z,16.85
2022-08-27T02:22:17.303Z,17.08
2022-08-27T02:24:43.766Z,16.88
2022-08-27T02:27:11.136Z,19.15
2022-08-27T02:29:37.930Z,18.20
2022-08-27T02:32:04.477Z,18.73
2022-08-27T02:34:30.954Z,18.63
2022-08-27T02:36:57.507Z,17.20
2022-08-27T02:39:24.018Z,17.25
2022-08-27T02:41:50.562Z,20.60
2022-08-27T02:44:17.206Z,19.08
2022-08-27T02:46:43.748Z,17.50
2022-08-27T02:49:10.807Z,20.10
2022-08-27T02:51:37.674Z,21.42
2022-08-27T02:54:05.552Z,20.33
2022-08-27T02:56:36.018Z,20.38
2022-08-27T02:59:02.535Z,19.63
2022-08-27T03:01:29.166Z,21.42
2022-08-27T03:03:57.340Z,19.42
2022-08-27T03:06:23.832Z,20.20
2022-08-27T03:08:53.146Z,20.67
2022-08-27T03:11:20.345Z,19.05
2022-08-27T03:13:46.890Z,21.35
2022-08-27T03:16:13.477Z,21.17
2022-08-27T03:18:40.593Z,20.25
2022-08-27T03:21:08.133Z,22.05
2022-08-27T03:23:35.379Z,21.92
2022-08-27T03:26:05.010Z,15.82
2022-08-27T03:28:34.038Z,21.90
2022-08-27T03:31:04.592Z,23.10
2022-08-27T03:33:33.799Z,24.98
2022-08-27T03:36:00.346Z,26.08
2022-08-27T03:38:27.286Z,25.23
2022-08-27T03:40:54.298Z,24.90
2022-08-27T03:43:22.190Z,17.05
2022-08-27T03:46:00.560Z,22.08
2022-08-27T03:48:29.056Z,24.48
2022-08-27T03:50:55.811Z,23.98
2022-08-27T03:53:22.344Z,23.30
2022-08-27T03:55:49.238Z,24.30
2022-08-27T03:58:16.850Z,23.33
2022-08-27T04:00:43.430Z,20.15
2022-08-27T04:03:13.196Z,20.17
2022-08-27T04:05:40.715Z,21.38
2022-08-27T04:08:13.240Z,22.05
2022-08-27T04:13:09.056Z,21.17
2022-08-27T04:15:37.825Z,23.05
2022-08-27T04:18:07.545Z,23.38
2022-08-27T04:20:35.726Z,23.98
2022-08-27T04:23:02.676Z,22.13
2022-08-27T04:25:29.459Z,22.38
2022-08-27T04:27:55.971Z,20.30
2022-08-27T04:30:22.473Z,21.45
2022-08-27T04:32:49.265Z,21.58
2022-08-27T04:35:16.049Z,22.20
2022-08-27T04:37:43.172Z,20.27
2022-08-27T04:40:10.385Z,21.08
2022-08-27T04:42:36.850Z,23.35
2022-08-27T04:45:04.360Z,22.77
2022-08-27T04:47:31.078Z,21.65
2022-08-27T04:49:57.837Z,22.10
2022-08-27T04:52:24.938Z,22.65
2022-08-27T04:54:51.953Z,22.60
2022-08-27T04:57:18.796Z,22.05
2022-08-27T04:59:45.516Z,18.77
2022-08-27T05:02:12.582Z,21.45
2022-08-27T05:04:40.647Z,22.23
2022-08-27T05:07:09.267Z,18.65
2022-08-27T05:09:36.291Z,21.27
2022-08-27T05:12:03.362Z,19.08
2022-08-27T05:14:30.406Z,22.23
2022-08-27T05:16:59.025Z,18.38
2022-08-27T05:19:25.994Z,21.08
2022-08-27T05:21:55.661Z,20.98
2022-08-27T05:24:22.414Z,21.73
2022-08-27T05:26:49.956Z,20.00
2022-08-27T05:29:17.123Z,20.85
2022-08-27T05:31:43.754Z,19.08
2022-08-27T05:34:16.572Z,20.60
2022-08-27T05:36:49.243Z,18.20
2022-08-27T05:39:16.640Z,16.98
2022-08-27T05:41:43.204Z,17.92
2022-08-27T05:44:37.264Z,17.85
2022-08-27T05:46:57.338Z,13.95
2022-08-27T05:49:23.809Z,13.85
2022-08-27T05:51:50.289Z,15.30
2022-08-27T05:54:19.178Z,15.55
2022-08-27T05:56:46.524Z,16.65
2022-08-27T05:59:31.799Z,16.52
2022-08-27T06:02:01.453Z,17.05
2022-08-27T06:04:28.105Z,17.40
2022-08-27T06:06:54.688Z,13.85
2022-08-27T06:09:25.448Z,13.80
2022-08-27T06:11:56.402Z,12.20
2022-08-27T06:14:23.247Z,13.43
2022-08-27T06:16:50.011Z,12.88
2022-08-27T06:19:16.728Z,12.80
2022-08-27T06:21:43.814Z,12.35
2022-08-27T06:24:14.875Z,12.65
2022-08-27T06:26:44.475Z,13.20
2022-08-27T06:29:12.825Z,12.95
2022-08-27T06:31:40.396Z,13.10
2022-08-27T06:34:09.970Z,13.95
2022-08-27T06:36:39.429Z,11.35
2022-08-27T06:39:07.348Z,13.27
2022-08-27T06:41:35.105Z,13.48
2022-08-27T06:44:01.586Z,13.60
2022-08-27T06:46:29.444Z,16.05
2022-08-27T06:48:58.883Z,14.35
2022-08-27T06:51:31.422Z,14.32
2022-08-27T06:54:01.090Z,13.10
2022-08-27T06:56:28.581Z,12.68
2022-08-27T06:58:57.361Z,12.38
2022-08-27T07:01:36.613Z,11.82
2022-08-27T07:04:07.128Z,10.80
2022-08-27T07:06:35.885Z,11.50
2022-08-27T07:09:02.725Z,9.63
2022-08-27T07:11:31.941Z,10.18
2022-08-27T07:13:59.081Z,10.80
2022-08-27T07:16:27.217Z,11.23
2022-08-27T07:18:56.808Z,9.18
2022-08-27T07:21:28.524Z,10.32
2022-08-27T07:23:58.889Z,9.82
2022-08-27T07:26:26.636Z,14.48
2022-08-27T07:28:53.503Z,10.40
2022-08-27T07:31:22.792Z,9.45
2022-08-27T07:33:52.548Z,10.00
2022-08-27T07:36:22.952Z,9.43
2022-08-27T07:39:00.866Z,9.40
2022-08-27T07:41:31.330Z,9.27
2022-08-27T07:44:18.737Z,8.38
2022-08-27T07:46:48.773Z,10.07
2022-08-27T07:49:17.210Z,9.43
2022-08-27T07:51:43.733Z,9.02
2022-08-27T07:54:10.716Z,8.77
2022-08-27T07:56:37.184Z,9.20
2022-08-27T07:59:03.911Z,9.57
2022-08-27T08:01:30.447Z,9.98
2022-08-27T08:03:57.095Z,8.88
2022-08-27T08:06:23.634Z,9.70
2022-08-27T08:08:50.227Z,8.88
2022-08-27T08:11:18.273Z,9.65
2022-08-27T08:13:46.117Z,9.57
2022-08-27T08:16:13.843Z,9.02
2022-08-27T08:18:40.892Z,9.55
2022-08-27T08:21:11.236Z,9.05
2022-08-27T08:23:38.369Z,9.65
2022-08-27T08:26:05.658Z,8.93
2022-08-27T08:28:32.877Z,10.40
2022-08-27T08:31:00.091Z,8.77
2022-08-27T08:33:27.830Z,9.25
2022-08-27T08:35:54.738Z,10.45
2022-08-27T08:38:21.841Z,10.30
2022-08-27T08:40:54.518Z,9.88
2022-08-27T08:43:33.107Z,8.88
2022-08-27T08:46:09.795Z,9.23
2022-08-27T08:48:40.521Z,8.68
2022-08-27T08:51:21.610Z,9.10
2022-08-27T08:54:04.624Z,9.35
2022-08-27T08:56:37.006Z,9.10
2022-08-27T08:59:05.942Z,8.85
2022-08-27T09:01:32.467Z,10.18
2022-08-27T09:04:05.176Z,10.60
2022-08-27T09:06:53.062Z,9.48
2022-08-27T09:09:28.006Z,11.23
2022-08-27T09:12:19.118Z,10.50
2022-08-27T09:15:04.111Z,10.27
2022-08-27T09:17:32.522Z,12.50
2022-08-27T09:19:59.419Z,13.40
2022-08-27T09:22:50.167Z,9.05
2022-08-27T09:25:26.642Z,9.55
2022-08-27T09:27:56.673Z,10.05
2022-08-27T09:30:30.513Z,8.65
2022-08-27T09:33:01.121Z,9.32
2022-08-27T09:35:44.726Z,10.30
2022-08-27T09:38:14.068Z,10.13
2022-08-27T09:40:49.115Z,9.65
2022-08-27T09:43:15.584Z,9.73
2022-08-27T09:45:49.552Z,9.90
2022-08-27T09:48:31.080Z,10.00
2022-08-27T09:51:02.399Z,10.02
2022-08-27T09:53:51.643Z,10.52
2022-08-27T09:56:38.013Z,11.00
2022-08-27T09:59:10.761Z,11.02
2022-08-27T10:01:53.873Z,10.82
2022-08-27T10:04:51.342Z,10.05
2022-08-27T10:07:37.179Z,9.63
2022-08-27T10:10:13.122Z,9.27
2022-08-27T10:13:19.784Z,8.40
2022-08-27T10:16:06.850Z,7.20
2022-08-27T10:18:54.633Z,7.15
2022-08-27T10:21:27.235Z,7.35
2022-08-27T10:24:13.213Z,6.32
2022-08-27T10:26:54.887Z,6.13
2022-08-27T10:29:55.134Z,5.78
2022-08-27T10:32:31.196Z,6.72
2022-08-27T10:35:18.110Z,6.15
2022-08-27T10:38:05.981Z,6.50
2022-08-27T10:40:38.609Z,6.55
2022-08-27T10:43:37.316Z,6.45
2022-08-27T10:46:10.916Z,6.88
2022-08-27T10:48:42.706Z,6.55
2022-08-27T10:51:33.735Z,6.70
2022-08-27T10:54:07.511Z,6.97
2022-08-27T10:57:03.651Z,6.00
2022-08-27T10:59:45.117Z,5.00
2022-08-27T11:02:20.599Z,5.90
2022-08-27T11:04:52.851Z,5.75
2022-08-27T11:07:27.038Z,4.78
2022-08-27T11:10:02.039Z,4.57
2022-08-27T11:12:36.358Z,4.93
2022-08-27T11:15:12.745Z,4.57
2022-08-27T11:17:42.511Z,5.07
2022-08-27T11:20:27.147Z,5.13
2022-08-27T11:23:12.111Z,5.18
2022-08-27T11:26:02.408Z,4.80
2022-08-27T11:28:41.907Z,4.90
2022-08-27T11:31:31.513Z,5.30
2022-08-27T11:34:07.902Z,5.18
2022-08-27T11:37:12.699Z,5.18
2022-08-27T11:39:52.064Z,5.35
2022-08-27T11:42:37.076Z,4.68
2022-08-27T11:45:08.663Z,5.53
2022-08-27T11:47:35.571Z,4.85
2022-08-27T11:50:16.021Z,5.20
2022-08-27T11:52:59.426Z,5.35
2022-08-27T11:55:31.939Z,5.45
2022-08-27T11:58:27.556Z,5.78
2022-08-27T12:00:54.445Z,5.78
2022-08-27T12:03:31.475Z,4.70
2022-08-27T12:05:58.905Z,5.13
2022-08-27T12:08:31.555Z,5.32
2022-08-27T12:11:19.734Z,5.00
2022-08-27T12:14:12.307Z,5.40
2022-08-27T12:16:46.139Z,5.35
2022-08-27T12:19:23.395Z,5.60
2022-08-27T12:22:05.085Z,5.85
2022-08-27T12:24:34.246Z,5.18
2022-08-27T12:27:15.516Z,5.90
2022-08-27T12:29:57.164Z,6.03
2022-08-27T12:32:28.685Z,4.73
2022-08-27T12:35:21.415Z,5.05
2022-08-27T12:38:03.876Z,4.55
2022-08-27T12:40:46.508Z,5.47
2022-08-27T12:43:17.970Z,5.13
2022-08-27T12:48:23.973Z,5.47
2022-08-27T12:50:53.461Z,5.45
2022-08-27T12:53:43.610Z,5.45
2022-08-27T12:56:45.359Z,5.93
2022-08-27T13:02:10.084Z,5.15
2022-08-27T13:04:41.008Z,5.70
2022-08-27T13:07:07.616Z,6.10
2022-08-27T13:09:37.456Z,6.00
2022-08-27T13:12:14.606Z,5.82
2022-08-27T13:14:41.385Z,5.68
2022-08-27T13:17:17.750Z,5.32
2022-08-27T13:19:51.188Z,5.40
2022-08-27T13:22:31.814Z,5.70
2022-08-27T13:25:02.383Z,5.10
2022-08-27T13:27:32.604Z,6.00
2022-08-27T13:30:07.450Z,5.82
2022-08-27T13:32:34.615Z,4.90
2022-08-27T13:35:01.900Z,5.68
2022-08-27T13:37:34.740Z,5.90
2022-08-27T13:40:01.380Z,6.13
2022-08-27T13:42:28.442Z,6.55
2022-08-27T13:45:02.835Z,5.65
2022-08-27T13:47:30.711Z,5.35
2022-08-27T13:50:07.655Z,5.25
2022-08-27T13:52:36.246Z,5.40
2022-08-27T13:55:09.859Z,5.38
2022-08-27T13:57:48.937Z,4.38
2022-08-27T14:00:20.566Z,5.10
2022-08-27T14:02:54.115Z,5.38
2022-08-27T14:05:25.434Z,5.07
2022-08-27T14:08:01.906Z,5.10
2022-08-27T14:10:41.359Z,4.78
2022-08-27T14:13:11.413Z,4.95
2022-08-27T14:15:42.949Z,5.05
2022-08-27T14:18:47.966Z,4.55
2022-08-27T14:21:15.227Z,4.95
2022-08-27T14:23:41.701Z,4.95
2022-08-27T14:26:08.521Z,4.75
2022-08-27T14:28:35.541Z,4.82
2022-08-27T14:31:02.136Z,4.63
2022-08-27T14:33:28.883Z,5.00
2022-08-27T14:35:55.478Z,4.28
2022-08-27T14:38:23.789Z,4.68
2022-08-27T14:40:53.640Z,4.80
2022-08-27T14:43:23.048Z,4.88
2022-08-27T14:45:51.728Z,4.40
2022-08-27T14:48:25.942Z,5.30
2022-08-27T14:50:55.392Z,4.80
2022-08-27T14:53:22.008Z,5.15
2022-08-27T14:55:51.654Z,5.43
2022-08-27T14:58:19.080Z,5.35
2022-08-27T15:00:45.682Z,5.55
2022-08-27T15:03:12.993Z,5.57
2022-08-27T15:05:39.554Z,5.93
2022-08-27T15:08:07.539Z,6.63
2022-08-27T15:10:36.065Z,6.13
2022-08-27T15:13:02.576Z,6.10
2022-08-27T15:15:29.091Z,6.65
2022-08-27T15:17:55.589Z,6.20
2022-08-27T15:20:22.132Z,6.35
2022-08-27T15:22:52.044Z,6.80
2022-08-27T15:25:19.808Z,6.95
2022-08-27T15:27:46.304Z,6.30
2022-08-27T15:30:15.495Z,7.07
2022-08-27T15:32:47.914Z,6.78
2022-08-27T15:35:18.706Z,6.47
2022-08-27T15:37:45.770Z,6.78
2022-08-27T15:40:14.556Z,6.15
2022-08-27T15:42:41.346Z,5.70
2022-08-27T15:45:08.895Z,5.10
2022-08-27T15:47:35.474Z,6.05
2022-08-27T15:50:01.966Z,5.85
2022-08-27T15:52:36.338Z,5.30
2022-08-27T15:55:15.498Z,5.18
2022-08-27T15:57:41.983Z,4.88
2022-08-27T16:00:09.167Z,5.25
2022-08-27T16:02:35.933Z,5.50
2022-08-27T16:05:02.641Z,4.70
2022-08-27T16:07:29.224Z,5.30
2022-08-27T16:09:55.766Z,5.22
2022-08-27T16:12:27.107Z,5.32
2022-08-27T16:14:55.094Z,4.25
2022-08-27T16:17:21.930Z,4.53
2022-08-27T16:19:49.351Z,4.30
2022-08-27T16:22:16.305Z,4.97
2022-08-27T16:24:43.336Z,4.65
2022-08-27T16:27:10.213Z,4.70
2022-08-27T16:29:37.031Z,4.47
2022-08-27T16:32:04.277Z,5.07
2022-08-27T16:34:31.033Z,4.38
2022-08-27T16:36:57.631Z,4.40
2022-08-27T16:39:24.104Z,4.00
2022-08-27T16:41:50.636Z,3.83
2022-08-27T16:44:17.632Z,3.63
2022-08-27T16:46:44.253Z,3.60
2022-08-27T16:49:29.107Z,3.42
2022-08-27T16:51:55.744Z,3.30
2022-08-27T16:54:22.477Z,2.90
2022-08-27T16:56:49.686Z,3.28
2022-08-27T16:59:16.703Z,2.92
2022-08-27T17:01:43.522Z,3.00
2022-08-27T17:04:21.354Z,3.13
2022-08-27T17:06:51.683Z,3.05
2022-08-27T17:09:19.085Z,3.17
2022-08-27T17:11:50.478Z,3.42
2022-08-27T17:14:16.954Z,3.00
2022-08-27T17:16:43.906Z,2.80
2022-08-27T17:19:16.759Z,3.58
2022-08-27T17:21:45.249Z,3.22
2022-08-27T17:24:12.479Z,3.20
2022-08-27T17:26:39.300Z,2.75
2022-08-27T17:29:05.943Z,3.58
2022-08-27T17:31:36.860Z,3.10
2022-08-27T17:34:05.717Z,3.33
2022-08-27T17:36:33.339Z,3.15
2022-08-27T17:39:00.195Z,3.38
2022-08-27T17:41:33.650Z,3.45
2022-08-27T17:44:15.999Z,3.13
2022-08-27T17:49:09.472Z,3.50
2022-08-27T17:51:36.041Z,3.17
2022-08-27T17:54:03.321Z,3.50
2022-08-27T17:56:29.986Z,3.53
2022-08-27T17:58:56.772Z,3.70
2022-08-27T18:01:31.585Z,3.35
2022-08-27T18:03:58.727Z,3.33
2022-08-27T18:06:27.875Z,2.83
2022-08-27T18:08:54.584Z,2.75
2022-08-27T18:11:21.379Z,2.83
2022-08-27T18:13:54.031Z,3.20
2022-08-27T18:16:21.800Z,3.45
2022-08-27T18:18:48.528Z,2.97
2022-08-27T18:21:24.935Z,3.30
2022-08-27T18:23:52.765Z,3.00
2022-08-27T18:26:21.498Z,2.63
2022-08-27T18:28:48.999Z,2.72
2022-08-27T18:31:18.408Z,3.10
2022-08-27T18:33:45.139Z,3.28
2022-08-27T18:36:11.892Z,2.78
2022-08-27T18:38:38.423Z,3.28
2022-08-27T18:41:06.238Z,2.90
2022-08-27T18:43:35.221Z,3.15
2022-08-27T18:46:03.418Z,3.15
2022-08-27T18:48:30.105Z,3.15
2022-08-27T18:50:59.302Z,3.00
2022-08-27T18:53:28.843Z,3.25
2022-08-27T18:55:55.554Z,2.90
2022-08-27T18:58:22.448Z,3.00
2022-08-27T19:00:53.430Z,2.20
2022-08-27T19:03:25.197Z,2.80
2022-08-27T19:05:55.047Z,2.90
2022-08-27T19:08:23.992Z,3.90
2022-08-27T19:10:50.965Z,3.30
2022-08-27T19:13:17.830Z,2.60
2022-08-27T19:15:50.896Z,2.70
2022-08-27T19:18:18.557Z,2.65
2022-08-27T19:20:45.083Z,2.67
2022-08-27T19:23:11.726Z,2.63
2022-08-27T19:25:38.406Z,2.30
2022-08-27T19:28:05.006Z,2.47
2022-08-27T19:30:32.808Z,2.40
2022-08-27T19:32:59.343Z,2.42
2022-08-27T19:35:25.872Z,3.03
2022-08-27T19:37:53.471Z,2.72
2022-08-27T19:40:21.994Z,2.80
2022-08-27T19:42:49.454Z,3.08
2022-08-27T19:45:16.263Z,2.92
2022-08-27T19:47:50.348Z,2.95
2022-08-27T19:50:17.471Z,3.13
2022-08-27T19:52:44.168Z,2.85
2022-08-27T19:55:13.917Z,2.65
2022-08-27T19:57:41.535Z,2.70
2022-08-27T20:00:09.597Z,3.63
2022-08-27T20:02:36.200Z,2.67
2022-08-27T20:05:17.382Z,3.17
2022-08-27T20:07:45.919Z,2.80
2022-08-27T20:10:12.510Z,2.78
2022-08-27T20:12:39.059Z,2.97
2022-08-27T20:15:06.772Z,3.45
2022-08-27T20:17:34.979Z,2.80
2022-08-27T20:20:01.810Z,2.90
2022-08-27T20:22:28.296Z,2.83
2022-08-27T20:24:54.872Z,3.47
2022-08-27T20:27:21.468Z,3.40
2022-08-27T20:29:48.641Z,3.00
2022-08-27T20:32:15.301Z,2.83
2022-08-27T20:34:42.017Z,3.30
2022-08-27T20:37:08.687Z,3.72
2022-08-27T20:39:35.382Z,3.60
2022-08-27T20:42:01.961Z,3.17
2022-08-27T20:44:29.175Z,3.20
2022-08-27T20:46:59.762Z,4.07
2022-08-27T20:49:27.911Z,3.67
2022-08-27T20:52:03.236Z,3.55
2022-08-27T20:54:31.554Z,4.35
2022-08-27T20:56:58.605Z,3.60
2022-08-27T20:59:43.926Z,3.88
2022-08-27T21:02:14.113Z,4.07
2022-08-27T21:04:46.447Z,4.32
2022-08-27T21:07:14.131Z,4.07
2022-08-27T21:09:56.431Z,3.67
2022-08-27T21:12:28.420Z,4.63
2022-08-27T21:14:55.851Z,3.97
2022-08-27T21:17:29.497Z,4.03
2022-08-27T21:19:56.478Z,3.63
2022-08-27T21:22:23.812Z,3.85
2022-08-27T21:24:50.351Z,3.90
2022-08-27T21:27:18.338Z,3.95
2022-08-27T21:29:45.204Z,4.43
2022-08-27T21:32:12.604Z,4.90
2022-08-27T21:34:39.677Z,4.68
2022-08-27T21:37:06.162Z,4.72
2022-08-27T21:39:34.167Z,4.57
2022-08-27T21:42:01.680Z,6.75
2022-08-27T21:44:30.409Z,6.07
2022-08-27T21:46:57.771Z,6.53
2022-08-27T21:49:24.306Z,4.90
2022-08-27T21:51:50.881Z,4.88
2022-08-27T21:54:17.550Z,6.90
2022-08-27T21:56:44.540Z,6.40
2022-08-27T21:59:11.121Z,5.80
2022-08-27T22:01:37.718Z,6.10
2022-08-27T22:04:04.221Z,6.07
2022-08-27T22:06:30.733Z,6.05
2022-08-27T22:08:57.228Z,6.15
2022-08-27T22:11:24.542Z,6.22
2022-08-27T22:13:51.952Z,5.70
2022-08-27T22:16:19.298Z,6.10
2022-08-27T22:18:45.825Z,6.35
2022-08-27T22:21:12.492Z,6.07
2022-08-27T22:23:39.004Z,6.93
2022-08-27T22:26:09.696Z,6.50
2022-08-27T22:28:36.202Z,6.55
2022-08-27T22:31:02.744Z,6.53
2022-08-27T22:33:29.290Z,6.72
2022-08-27T22:35:55.867Z,6.70
2022-08-27T22:38:22.358Z,6.57
2022-08-27T22:40:50.124Z,6.25
2022-08-27T22:43:17.016Z,6.20
2022-08-27T22:45:43.495Z,6.88
2022-08-27T22:48:10.171Z,6.80
2022-08-27T22:50:36.764Z,6.38
2022-08-27T22:53:03.426Z,7.18
2022-08-27T22:55:29.954Z,6.80
2022-08-27T22:57:56.532Z,7.43
2022-08-27T23:00:26.990Z,6.25
2022-08-27T23:02:54.089Z,6.03
2022-08-27T23:05:21.455Z,6.00
2022-08-27T23:07:48.378Z,6.80
2022-08-27T23:10:18.315Z,6.43
2022-08-27T23:12:46.510Z,6.90
2022-08-27T23:15:15.611Z,6.40
2022-08-27T23:17:42.144Z,6.32
2022-08-27T23:20:10.917Z,6.35
2022-08-27T23:22:38.787Z,6.55
2022-08-27T23:25:26.185Z,6.75
2022-08-27T23:27:53.681Z,6.75
2022-08-27T23:30:21.466Z,6.38
2022-08-27T23:32:53.762Z,6.45
2022-08-27T23:35:22.544Z,7.07
2022-08-27T23:37:50.026Z,7.00
2022-08-27T23:40:17.800Z,6.97
2022-08-27T23:42:45.261Z,5.90
2022-08-27T23:45:15.210Z,6.45
2022-08-27T23:47:41.681Z,6.70
2022-08-27T23:50:09.545Z,6.72
2022-08-27T23:52:37.212Z,8.10
2022-08-27T23:55:05.154Z,7.63
2022-08-27T23:57:31.658Z,6.93
2022-08-27T23:59:58.152Z,7.68
